createdAt,value
2023-01-02T00:01:20.878Z,12.60
2023-01-02T00:03:47.838Z,12.10
2023-01-02T00:06:14.849Z,10.85
2023-01-02T00:08:41.738Z,8.82
2023-01-02T00:11:08.701Z,12.00
2023-01-02T00:13:35.665Z,7.35
2023-01-02T00:16:02.563Z,11.00
2023-01-02T00:18:29.438Z,8.52
2023-01-02T00:20:56.446Z,10.65
2023-01-02T00:23:23.347Z,8.93
2023-01-02T00:25:50.258Z,8.32
2023-01-02T00:28:17.232Z,10.82
2023-01-02T00:30:44.200Z,5.93
2023-01-02T00:33:11.080Z,8.27
2023-01-02T00:35:38.709Z,8.05
2023-01-02T00:38:06.367Z,8.85
2023-01-02T00:40:33.780Z,11.68
2023-01-02T00:43:01.743Z,9.73
2023-01-02T00:45:29.016Z,7.28
2023-01-02T00:47:56.012Z,9.75
2023-01-02T00:50:22.969Z,11.55
2023-01-02T00:52:49.815Z,7.70
2023-01-02T00:55:16.921Z,9.27
2023-01-02T00:57:43.797Z,12.02
2023-01-02T01:00:11.548Z,10.32
2023-01-02T01:02:38.509Z,10.80
2023-01-02T01:05:06.274Z,7.57
2023-01-02T01:07:33.420Z,9.07
2023-01-02T01:10:00.509Z,10.10
2023-01-02T01:12:27.502Z,8.32
2023-01-02T01:14:54.391Z,9.55
2023-01-02T01:17:21.235Z,10.50
2023-01-02T01:19:48.131Z,9.45
2023-01-02T01:22:14.998Z,9.57
2023-01-02T01:24:41.947Z,8.20
2023-01-02T01:27:09.160Z,8.82
2023-01-02T01:29:36.074Z,10.05
2023-01-02T01:32:03.118Z,10.85
2023-01-02T01:34:30.003Z,9.55
2023-01-02T01:36:57.217Z,9.35
2023-01-02T01:39:24.298Z,8.38
2023-01-02T01:41:51.438Z,7.72
2023-01-02T01:44:52.012Z,10.27
2023-01-02T01:47:52.030Z,8.70
2023-01-02T01:50:24.972Z,9.13
2023-01-02T01:53:18.815Z,8.32
2023-01-02T01:55:52.622Z,12.43
2023-01-02T01:58:33.848Z,7.68
2023-01-02T02:01:01.941Z,7.90
2023-01-02T02:03:33.671Z,9.80
2023-01-02T02:06:02.850Z,7.18
2023-01-02T02:08:59.711Z,7.25
2023-01-02T02:11:28.514Z,9.32
2023-01-02T02:14:00.498Z,8.57
2023-01-02T02:16:35.208Z,9.43
2023-01-02T02:19:44.321Z,10.25
2023-01-02T02:23:23.585Z,9.23
2023-01-02T02:26:19.284Z,7.55
2023-01-02T02:29:34.451Z,6.75
2023-01-02T02:32:34.161Z,8.55
2023-01-02T02:35:29.461Z,11.45
2023-01-02T02:38:14.931Z,5.88
2023-01-02T02:44:04.660Z,9.38
2023-01-02T02:50:09.125Z,10.60
2023-01-02T02:52:49.086Z,7.97
2023-01-02T02:55:23.011Z,8.00
2023-01-02T02:57:52.342Z,8.45
2023-01-02T03:00:23.628Z,5.53
2023-01-02T03:02:50.659Z,8.32
2023-01-02T03:05:30.009Z,8.68
2023-01-02T03:08:33.439Z,7.53
2023-01-02T03:11:02.764Z,7.25
2023-01-02T03:13:50.468Z,9.20
2023-01-02T03:16:39.828Z,8.02
2023-01-02T03:19:17.881Z,6.22
2023-01-02T03:22:01.903Z,5.45
2023-01-02T03:24:30.891Z,6.82
2023-01-02T03:27:07.968Z,6.70
2023-01-02T03:29:43.408Z,8.00
2023-01-02T03:32:22.854Z,7.95
2023-01-02T03:34:52.862Z,6.75
2023-01-02T03:37:28.854Z,8.13
2023-01-02T03:40:02.680Z,7.90
2023-01-02T03:42:40.123Z,9.43
2023-01-02T03:45:16.518Z,8.95
2023-01-02T03:47:55.548Z,8.68
2023-01-02T03:50:40.766Z,10.07
2023-01-02T03:53:08.187Z,6.72
2023-01-02T03:55:42.245Z,6.70
2023-01-02T03:58:41.556Z,7.38
2023-01-02T04:01:33.754Z,10.80
2023-01-02T04:04:27.542Z,8.55
2023-01-02T04:07:03.277Z,10.77
2023-01-02T04:09:34.796Z,9.27
2023-01-02T04:12:11.498Z,10.45
2023-01-02T04:14:46.727Z,9.70
2023-01-02T04:17:18.448Z,9.27
2023-01-02T04:19:54.021Z,7.90
2023-01-02T04:22:33.404Z,10.25
2023-01-02T04:25:13.641Z,9.02
2023-01-02T04:27:59.256Z,9.43
2023-01-02T04:30:32.560Z,9.27
2023-01-02T04:33:06.869Z,7.03
2023-01-02T04:35:35.452Z,9.23
2023-01-02T04:38:13.174Z,11.32
2023-01-02T04:40:41.327Z,9.57
2023-01-02T04:43:17.439Z,10.38
2023-01-02T04:45:44.383Z,6.78
2023-01-02T04:48:11.199Z,10.05
2023-01-02T04:50:38.090Z,9.20
2023-01-02T04:53:04.978Z,8.48
2023-01-02T04:55:31.928Z,10.88
2023-01-02T04:57:59.065Z,8.55
2023-01-02T05:00:26.265Z,8.23
2023-01-02T05:02:53.189Z,9.13
2023-01-02T05:05:20.476Z,11.77
2023-01-02T05:07:47.341Z,10.35
2023-01-02T05:10:14.340Z,7.88
2023-01-02T05:12:41.476Z,8.60
2023-01-02T05:15:10.300Z,9.82
2023-01-02T05:17:39.922Z,8.07
2023-01-02T05:20:10.775Z,7.75
2023-01-02T05:23:01.592Z,9.73
2023-01-02T05:25:33.195Z,11.18
2023-01-02T05:28:01.618Z,10.85
2023-01-02T05:30:29.177Z,6.97
2023-01-02T05:32:56.123Z,14.30
2023-01-02T05:35:28.481Z,8.45
2023-01-02T05:37:57.210Z,9.60
2023-01-02T05:40:24.165Z,7.38
2023-01-02T05:42:51.036Z,11.85
2023-01-02T05:45:18.042Z,8.20
2023-01-02T05:47:44.934Z,9.50
2023-01-02T05:50:11.778Z,9.07
2023-01-02T05:52:43.417Z,9.90
2023-01-02T05:55:12.391Z,10.65
2023-01-02T05:57:41.871Z,9.43
2023-01-02T06:00:09.723Z,11.50
2023-01-02T06:02:43.184Z,9.70
2023-01-02T06:05:14.665Z,9.88
2023-01-02T06:07:41.503Z,13.90
2023-01-02T06:10:09.062Z,11.45
2023-01-02T06:12:35.930Z,10.95
2023-01-02T06:15:03.310Z,9.48
2023-01-02T06:17:30.195Z,9.65
2023-01-02T06:19:57.080Z,8.30
2023-01-02T06:22:24.030Z,9.65
2023-01-02T06:24:50.955Z,9.60
2023-01-02T06:27:17.910Z,10.80
2023-01-02T06:29:44.744Z,10.18
2023-01-02T06:32:11.767Z,9.10
2023-01-02T06:34:38.731Z,11.25
2023-01-02T06:37:09.794Z,11.55
2023-01-02T06:39:37.857Z,10.52
2023-01-02T06:42:05.545Z,12.18
2023-01-02T06:44:32.591Z,12.05
2023-01-02T06:46:59.511Z,10.90
2023-01-02T06:49:29.360Z,10.93
2023-01-02T06:51:56.284Z,13.70
2023-01-02T06:54:23.233Z,12.75
2023-01-02T06:56:50.682Z,12.63
2023-01-02T06:59:17.610Z,13.35
2023-01-02T07:01:44.841Z,11.05
2023-01-02T07:04:16.704Z,13.07
2023-01-02T07:06:43.705Z,12.70
2023-01-02T07:09:10.564Z,13.13
2023-01-02T07:11:39.230Z,16.20
2023-01-02T07:14:06.268Z,13.75
2023-01-02T07:16:33.782Z,13.00
2023-01-02T07:19:00.837Z,14.15
2023-01-02T07:21:27.818Z,13.43
2023-01-02T07:23:54.795Z,13.88
2023-01-02T07:26:22.439Z,16.00
2023-01-02T07:28:49.387Z,12.48
2023-01-02T07:31:19.724Z,14.45
2023-01-02T07:33:47.055Z,13.68
2023-01-02T07:36:18.517Z,14.98
2023-01-02T07:38:52.972Z,13.23
2023-01-02T07:41:23.657Z,16.35
2023-01-02T07:43:52.931Z,16.00
2023-01-02T07:46:20.596Z,17.88
2023-01-02T07:48:48.336Z,15.68
2023-01-02T07:51:17.360Z,11.45
2023-01-02T07:53:48.106Z,12.70
2023-01-02T07:56:14.974Z,12.73
2023-01-02T07:58:41.891Z,16.38
2023-01-02T08:01:12.940Z,13.73
2023-01-02T08:03:40.878Z,16.73
2023-01-02T08:06:14.034Z,16.25
2023-01-02T08:08:42.817Z,12.95
2023-01-02T08:11:13.626Z,13.85
2023-01-02T08:13:41.221Z,14.15
2023-01-02T08:16:15.428Z,14.25
2023-01-02T08:18:42.717Z,16.57
2023-01-02T08:21:21.929Z,13.13
2023-01-02T08:23:51.538Z,11.60
2023-01-02T08:26:22.899Z,12.50
2023-01-02T08:28:49.836Z,13.15
2023-01-02T08:31:20.413Z,12.35
2023-01-02T08:33:48.570Z,12.52
2023-01-02T08:36:15.514Z,12.10
2023-01-02T08:38:45.349Z,15.60
2023-01-02T08:41:12.417Z,14.35
2023-01-02T08:43:39.642Z,11.23
2023-01-02T08:46:09.775Z,13.90
2023-01-02T08:48:36.836Z,12.82
2023-01-02T08:51:04.971Z,12.73
2023-01-02T08:53:31.995Z,14.50
2023-01-02T08:56:24.541Z,13.30
2023-01-02T08:59:04.827Z,11.40
2023-01-02T09:01:33.455Z,13.63
2023-01-02T09:04:07.766Z,12.25
2023-01-02T09:06:37.618Z,14.77
2023-01-02T09:09:11.046Z,13.52
2023-01-02T09:11:44.997Z,12.80
2023-01-02T09:14:12.035Z,11.13
2023-01-02T09:16:38.985Z,14.73
2023-01-02T09:19:06.185Z,12.80
2023-01-02T09:21:33.377Z,12.68
2023-01-02T09:24:00.326Z,15.70
2023-01-02T09:26:27.523Z,14.50
2023-01-02T09:28:54.499Z,11.15
2023-01-02T09:31:22.042Z,12.85
2023-01-02T09:33:49.578Z,14.90
2023-01-02T09:36:19.711Z,10.05
2023-01-02T09:38:58.871Z,13.43
2023-01-02T09:41:43.353Z,12.35
2023-01-02T09:44:24.907Z,16.13
2023-01-02T09:47:11.754Z,9.40
2023-01-02T09:50:00.678Z,10.93
2023-01-02T09:52:57.274Z,9.48
2023-01-02T09:56:00.274Z,10.82
2023-01-02T09:59:06.969Z,11.18
2023-01-02T10:02:17.617Z,11.32
2023-01-02T10:05:07.446Z,9.98
2023-01-02T10:07:49.592Z,10.98
2023-01-02T10:10:27.640Z,11.00
2023-01-02T10:14:08.468Z,10.65
2023-01-02T10:16:28.200Z,9.07
2023-01-02T10:18:56.759Z,11.27
2023-01-02T10:21:32.310Z,11.23
2023-01-02T10:24:45.863Z,11.55
2023-01-02T10:27:20.131Z,11.82
2023-01-02T10:30:24.956Z,11.32
2023-01-02T10:33:03.035Z,10.80
2023-01-02T10:35:40.327Z,9.48
2023-01-02T10:38:19.374Z,11.73
2023-01-02T10:40:49.954Z,11.45
2023-01-02T10:43:18.451Z,9.63
2023-01-02T10:45:45.555Z,10.60
2023-01-02T10:48:13.796Z,11.63
2023-01-02T10:50:47.910Z,9.35
2023-01-02T10:53:39.614Z,12.60
2023-01-02T10:56:20.553Z,12.85
2023-01-02T10:58:51.182Z,9.70
2023-01-02T11:01:21.856Z,8.68
2023-01-02T11:04:12.065Z,12.13
2023-01-02T11:07:01.657Z,10.30
2023-01-02T11:09:31.200Z,11.05
2023-01-02T11:12:10.356Z,10.57
2023-01-02T11:14:38.107Z,17.65
2023-01-02T11:17:14.133Z,8.52
2023-01-02T11:19:54.658Z,8.45
2023-01-02T11:22:33.658Z,12.02
2023-01-02T11:25:21.145Z,10.18
2023-01-02T11:27:48.627Z,8.85
2023-01-02T11:30:51.291Z,9.43
2023-01-02T11:33:24.280Z,8.77
2023-01-02T11:36:11.432Z,10.23
2023-01-02T11:38:49.644Z,10.30
2023-01-02T11:41:53.349Z,10.82
2023-01-02T11:44:48.579Z,8.02
2023-01-02T11:47:17.521Z,8.52
2023-01-02T11:49:49.275Z,8.68
2023-01-02T11:52:23.695Z,9.52
2023-01-02T11:55:01.908Z,10.70
2023-01-02T11:57:41.202Z,10.48
2023-01-02T12:00:16.983Z,10.75
2023-01-02T12:02:51.847Z,11.13
2023-01-02T12:05:46.851Z,10.50
2023-01-02T12:08:51.644Z,9.57
2023-01-02T12:12:22.178Z,9.57
2023-01-02T12:15:10.626Z,7.90
2023-01-02T12:18:15.864Z,8.48
2023-01-02T12:21:00.533Z,9.60
2023-01-02T12:23:48.129Z,8.63
2023-01-02T12:26:21.869Z,10.65
2023-01-02T12:29:09.354Z,9.30
2023-01-02T12:32:06.717Z,10.10
2023-01-02T12:34:51.286Z,9.02
2023-01-02T12:37:54.409Z,9.60
2023-01-02T12:41:01.062Z,9.57
2023-01-02T12:44:02.487Z,8.05
2023-01-02T12:47:04.820Z,7.28
2023-01-02T12:50:11.699Z,7.25
2023-01-02T12:53:07.575Z,10.60
2023-01-02T12:59:22.112Z,8.43
2023-01-02T13:02:05.933Z,10.10
2023-01-02T13:04:46.591Z,10.23
2023-01-02T13:07:59.501Z,11.63
2023-01-02T13:10:29.225Z,8.73
2023-01-02T13:13:01.559Z,9.30
2023-01-02T13:15:36.047Z,8.65
2023-01-02T13:18:28.093Z,7.68
2023-01-02T13:21:08.680Z,10.93
2023-01-02T13:23:43.900Z,8.38
2023-01-02T13:26:21.541Z,10.82
2023-01-02T13:29:20.141Z,11.45
2023-01-02T13:31:54.161Z,12.90
2023-01-02T13:34:26.095Z,8.43
2023-01-02T13:37:06.925Z,8.32
2023-01-02T13:39:39.693Z,9.75
2023-01-02T13:42:37.731Z,10.27
2023-01-02T13:45:14.834Z,10.25
2023-01-02T13:47:58.737Z,8.70
2023-01-02T13:50:30.117Z,10.02
2023-01-02T13:53:12.136Z,7.43
2023-01-02T13:55:42.092Z,8.30
2023-01-02T13:58:22.822Z,8.85
2023-01-02T14:00:56.695Z,7.13
2023-01-02T14:03:23.891Z,7.47
2023-01-02T14:05:58.972Z,11.20
2023-01-02T14:08:34.262Z,8.80
2023-01-02T14:11:16.571Z,9.20
2023-01-02T14:13:50.255Z,9.93
2023-01-02T14:16:23.068Z,9.43
2023-01-02T14:19:14.646Z,15.52
2023-01-02T14:21:58.664Z,9.25
2023-01-02T14:24:30.936Z,8.27
2023-01-02T14:27:16.552Z,10.02
2023-01-02T14:29:58.819Z,12.13
2023-01-02T14:32:34.717Z,6.95
2023-01-02T14:35:31.089Z,12.60
2023-01-02T14:38:18.296Z,10.40
2023-01-02T14:40:47.338Z,8.57
2023-01-02T14:43:32.850Z,9.45
2023-01-02T14:46:25.416Z,11.35
2023-01-02T14:49:25.317Z,9.50
2023-01-02T14:52:08.262Z,9.85
2023-01-02T14:55:19.326Z,8.98
2023-01-02T14:57:51.473Z,8.50
2023-01-02T15:00:38.472Z,7.68
2023-01-02T15:03:21.713Z,9.52
2023-01-02T15:06:07.508Z,10.25
2023-01-02T15:08:42.400Z,13.18
2023-01-02T15:11:43.572Z,11.00
2023-01-02T15:14:21.934Z,9.13
2023-01-02T15:16:58.276Z,8.63
2023-01-02T15:19:32.161Z,9.85
2023-01-02T15:22:08.232Z,10.63
2023-01-02T15:24:35.491Z,12.95
2023-01-02T15:27:21.473Z,10.35
2023-01-02T15:29:53.638Z,10.10
2023-01-02T15:32:24.316Z,12.32
2023-01-02T15:34:51.940Z,9.57
2023-01-02T15:37:22.850Z,8.00
2023-01-02T15:39:53.840Z,11.95
2023-01-02T15:42:44.224Z,11.75
2023-01-02T15:45:16.374Z,12.68
2023-01-02T15:47:47.683Z,12.75
2023-01-02T15:50:27.909Z,10.80
2023-01-02T15:53:07.027Z,12.57
2023-01-02T15:55:40.852Z,10.82
2023-01-02T15:58:17.205Z,10.63
2023-01-02T16:00:46.347Z,11.65
2023-01-02T16:04:02.844Z,9.23
2023-01-02T16:06:35.154Z,11.75
2023-01-02T16:09:08.083Z,11.88
2023-01-02T16:11:50.705Z,15.30
2023-01-02T16:14:25.491Z,11.45
2023-01-02T16:17:01.960Z,7.60
2023-01-02T16:20:01.130Z,7.93
2023-01-02T16:22:57.586Z,11.38
2023-01-02T16:25:36.316Z,10.95
2023-01-02T16:28:36.233Z,10.25
2023-01-02T16:31:20.110Z,12.75
2023-01-02T16:33:48.592Z,10.18
2023-01-02T16:36:15.435Z,11.77
2023-01-02T16:38:49.729Z,10.60
2023-01-02T16:41:34.635Z,16.07
2023-01-02T16:44:12.411Z,11.80
2023-01-02T16:46:41.666Z,11.50
2023-01-02T16:49:16.876Z,11.15
2023-01-02T16:51:45.792Z,13.68
2023-01-02T16:54:14.801Z,12.75
2023-01-02T16:56:41.822Z,13.38
2023-01-02T16:59:08.761Z,15.95
2023-01-02T17:01:35.862Z,11.57
2023-01-02T17:04:03.188Z,12.90
2023-01-02T17:06:30.427Z,14.48
2023-01-02T17:08:57.472Z,12.60
2023-01-02T17:11:25.141Z,10.18
2023-01-02T17:13:54.476Z,9.60
2023-01-02T17:16:21.577Z,10.85
2023-01-02T17:18:48.584Z,9.13
2023-01-02T17:21:15.988Z,6.82
2023-01-02T17:23:43.013Z,8.48
2023-01-02T17:26:09.937Z,14.13
2023-01-02T17:28:36.997Z,9.27
2023-01-02T17:31:04.403Z,9.57
2023-01-02T17:33:31.653Z,10.75
2023-01-02T17:35:58.671Z,8.93
2023-01-02T17:38:25.656Z,9.05
2023-01-02T17:41:00.229Z,6.40
2023-01-02T17:43:27.255Z,12.57
2023-01-02T17:45:54.316Z,6.40
2023-01-02T17:48:24.876Z,9.52
2023-01-02T17:50:53.703Z,9.32
2023-01-02T17:53:20.882Z,9.00
2023-01-02T17:56:21.748Z,8.20
2023-01-02T17:58:48.540Z,10.25
2023-01-02T18:01:20.720Z,6.68
2023-01-02T18:03:51.067Z,9.02
2023-01-02T18:06:21.758Z,6.90
2023-01-02T18:08:52.675Z,8.15
2023-01-02T18:11:21.918Z,7.05
2023-01-02T18:14:01.632Z,6.63
2023-01-02T18:16:42.486Z,8.77
2023-01-02T18:19:19.977Z,8.73
2023-01-02T18:21:47.388Z,8.18
2023-01-02T18:24:33.215Z,7.38
2023-01-02T18:40:33.149Z,7.47
2023-01-02T18:45:59.446Z,11.52
2023-01-02T18:48:26.900Z,7.53
2023-01-02T18:51:02.110Z,7.13
2023-01-02T18:53:46.547Z,8.18
2023-01-02T18:56:24.943Z,7.68
2023-01-02T18:58:54.915Z,6.13
2023-01-02T19:01:30.102Z,7.10
2023-01-02T19:04:28.391Z,4.97
2023-01-02T19:07:15.487Z,8.27
2023-01-02T19:09:42.886Z,6.32
2023-01-02T19:12:42.149Z,11.77
2023-01-02T19:15:43.492Z,9.43
2023-01-02T19:18:33.284Z,9.85
2023-01-02T19:21:31.121Z,5.68
2023-01-02T19:24:05.527Z,6.07
2023-01-02T19:26:38.113Z,6.47
2023-01-02T19:29:12.109Z,4.78
2023-01-02T19:31:43.525Z,9.02
2023-01-02T19:34:40.700Z,5.47
2023-01-02T19:37:40.143Z,7.22
2023-01-02T19:40:21.373Z,7.60
2023-01-02T19:42:50.809Z,5.43
2023-01-02T19:45:24.710Z,4.47
2023-01-02T19:47:53.663Z,6.68
2023-01-02T19:50:27.169Z,5.22
2023-01-02T19:52:54.455Z,6.07
2023-01-02T19:55:21.797Z,7.20
2023-01-02T19:57:49.286Z,5.00
2023-01-02T20:00:19.705Z,7.18
2023-01-02T20:02:49.726Z,6.75
2023-01-02T20:05:21.775Z,4.28
2023-01-02T20:07:54.898Z,6.90
2023-01-02T20:10:23.064Z,6.20
2023-01-02T20:12:50.650Z,11.65
2023-01-02T20:15:38.112Z,4.45
2023-01-02T20:18:08.831Z,11.32
2023-01-02T20:20:36.431Z,8.73
2023-01-02T20:23:03.784Z,9.27
2023-01-02T20:25:31.091Z,5.85
2023-01-02T20:27:59.036Z,9.43
2023-01-02T20:30:26.978Z,7.85
2023-01-02T20:32:56.999Z,5.78
2023-01-02T20:35:24.259Z,7.45
2023-01-02T20:37:51.725Z,6.13
2023-01-02T20:40:19.188Z,3.85
2023-01-02T20:42:46.456Z,2.45
2023-01-02T20:45:15.186Z,7.20
2023-01-02T20:47:42.589Z,2.42
2023-01-02T20:50:10.188Z,2.28
2023-01-02T20:52:39.279Z,2.95
2023-01-02T20:55:07.379Z,3.47
2023-01-02T20:57:34.594Z,3.97
2023-01-02T21:00:02.308Z,3.28
2023-01-02T21:02:29.831Z,3.90
2023-01-02T21:04:57.021Z,3.97
2023-01-02T21:07:23.958Z,3.35
2023-01-02T21:09:57.483Z,4.00
2023-01-02T21:12:43.347Z,1.85
2023-01-02T21:15:31.300Z,2.22
2023-01-02T21:17:59.559Z,4.05
2023-01-02T21:20:26.563Z,3.78
2023-01-02T21:22:53.439Z,2.35
2023-01-02T21:25:20.426Z,3.35
2023-01-02T21:27:47.484Z,2.83
2023-01-02T21:30:14.351Z,3.55
2023-01-02T21:32:41.281Z,2.60
2023-01-02T21:35:08.457Z,3.25
2023-01-02T21:37:35.448Z,1.98
2023-01-02T21:40:05.717Z,2.55
2023-01-02T21:42:34.347Z,2.33
2023-01-02T21:45:04.875Z,1.98
2023-01-02T21:47:31.807Z,5.20
2023-01-02T21:49:58.688Z,3.13
2023-01-02T21:52:25.860Z,2.40
2023-01-02T21:54:52.845Z,2.58
2023-01-02T21:57:27.552Z,4.40
2023-01-02T22:00:07.815Z,2.20
2023-01-02T22:02:38.606Z,3.08
2023-01-02T22:05:07.100Z,2.38
2023-01-02T22:07:36.921Z,2.28
2023-01-02T22:10:07.132Z,3.17
2023-01-02T22:12:36.345Z,2.92
2023-01-02T22:15:06.050Z,2.22
2023-01-02T22:17:32.941Z,2.53
2023-01-02T22:19:59.997Z,3.42
2023-01-02T22:22:27.298Z,2.33
2023-01-02T22:24:54.408Z,2.50
2023-01-02T22:27:22.950Z,2.35
2023-01-02T22:30:31.021Z,2.45
2023-01-02T22:32:42.090Z,2.70
2023-01-02T22:35:09.832Z,3.67
2023-01-02T22:37:36.846Z,2.05
2023-01-02T22:40:04.187Z,3.50
2023-01-02T22:43:08.222Z,3.35
2023-01-02T22:45:42.516Z,1.55
2023-01-02T22:48:26.743Z,1.97
2023-01-02T22:51:02.325Z,2.05
2023-01-02T22:53:37.111Z,1.73
2023-01-02T22:56:14.399Z,2.03
2023-01-02T22:58:42.088Z,2.38
2023-01-02T23:01:19.222Z,2.00
2023-01-02T23:03:48.043Z,2.53
2023-01-02T23:06:21.708Z,2.20
2023-01-02T23:08:50.196Z,2.13
2023-01-02T23:11:18.774Z,1.98
2023-01-02T23:13:51.508Z,2.45
2023-01-02T23:16:39.924Z,2.00
2023-01-02T23:19:16.357Z,1.85
2023-01-02T23:21:47.331Z,2.10
2023-01-02T23:24:21.804Z,1.27
2023-01-02T23:26:52.510Z,1.65
2023-01-02T23:29:21.690Z,1.80
2023-01-02T23:31:50.751Z,2.80
2023-01-02T23:34:23.596Z,1.77
2023-01-02T23:36:53.221Z,1.33
2023-01-02T23:39:27.182Z,1.00
2023-01-02T23:41:55.007Z,1.90
2023-01-02T23:44:23.700Z,1.83
2023-01-02T23:46:51.669Z,1.95
2023-01-02T23:49:19.177Z,1.60
2023-01-02T23:51:46.643Z,2.35
2023-01-02T23:54:16.635Z,1.85
2023-01-02T23:56:46.838Z,1.85
2023-01-02T23:59:19.444Z,1.55
